Time;durP1;ratioP1;P1;durP2;ratioP2;P2;SDS_P1;SDS_P2;PMS_P1;PMS_P2;Temp;Humidity;BMP_temperature;BMP_pressure;BME280_temperature;BME280_humidity;BME280_pressure;Samples;Min_cycle;Max_cycle;Signal;HPM_P1;HPM_P2
2022/07/26 00:02:03;;;;;;;9.63;8.83;;;;;;;18.41;100.00;100305.56;1792159;80;21514;-87
2022/07/26 00:04:31;;;;;;;9.20;8.43;;;;;;;18.36;100.00;100309.70;1792294;79;21068;-87
2022/07/26 00:07:00;;;;;;;9.35;8.45;;;;;;;18.24;100.00;100307.96;1792222;80;21017;-86
2022/07/26 00:09:29;;;;;;;9.43;8.63;;;;;;;18.15;100.00;100301.89;1792297;79;21521;-86
2022/07/26 00:11:57;;;;;;;9.05;8.35;;;;;;;18.08;100.00;100300.47;1792263;78;21149;-86
2022/07/26 00:14:27;;;;;;;9.98;8.50;;;;;;;18.05;100.00;100293.41;1792233;80;21597;-87
2022/07/26 00:16:56;;;;;;;10.43;9.53;;;;;;;18.01;100.00;100296.05;1792181;78;21016;-87
2022/07/26 00:19:23;;;;;;;9.90;9.00;;;;;;;17.95;100.00;100290.48;1792234;78;21047;-88
2022/07/26 00:22:32;;;;;;;10.15;9.15;;;;;;;17.90;100.00;100291.47;1792711;80;21112;-86
2022/07/26 00:24:21;;;;;;;10.70;9.70;;;;;;;17.86;100.00;100286.20;1788465;80;21260;-87
2022/07/26 00:26:49;;;;;;;11.50;10.40;;;;;;;17.85;100.00;100283.75;1792136;79;21036;-87
2022/07/26 00:29:16;;;;;;;10.10;9.25;;;;;;;17.85;100.00;100294.29;1792219;80;21005;-87
2022/07/26 00:31:46;;;;;;;10.38;9.33;;;;;;;17.81;100.00;100288.55;1792152;80;21024;-86
2022/07/26 00:34:13;;;;;;;10.55;9.58;;;;;;;17.76;100.00;100284.27;1792258;80;20989;-86
2022/07/26 00:36:43;;;;;;;9.68;8.78;;;;;;;17.74;100.00;100287.59;1792501;78;21073;-87
2022/07/26 00:39:10;;;;;;;11.12;10.03;;;;;;;17.73;100.00;100288.58;1792152;80;20993;-87
2022/07/26 00:41:38;;;;;;;10.15;9.25;;;;;;;17.72;100.00;100279.03;1792446;78;21005;-87
2022/07/26 00:44:07;;;;;;;10.20;9.20;;;;;;;17.72;100.00;100282.98;1792304;79;21019;-86
2022/07/26 00:46:35;;;;;;;10.93;9.83;;;;;;;17.72;100.00;100276.39;1792322;78;21032;-86
2022/07/26 00:49:03;;;;;;;10.28;8.78;;;;;;;17.72;100.00;100279.03;1792214;80;21241;-89
2022/07/26 00:51:31;;;;;;;12.37;10.23;;;;;;;17.73;100.00;100274.09;1792522;78;20997;-86
2022/07/26 00:53:58;;;;;;;10.40;9.33;;;;;;;17.76;100.00;100271.09;1792176;78;21036;-86
2022/07/26 00:56:27;;;;;;;11.18;9.13;;;;;;;17.77;100.00;100271.42;1792191;79;21040;-86
2022/07/26 00:58:56;;;;;;;9.70;8.90;;;;;;;17.79;100.00;100268.13;1792153;80;21059;-86
2022/07/26 01:01:23;;;;;;;9.68;8.88;;;;;;;17.82;100.00;100273.88;1792087;78;21197;-86
2022/07/26 01:03:52;;;;;;;11.00;10.00;;;;;;;17.86;100.00;100275.67;1792314;78;21040;-86
2022/07/26 01:06:23;;;;;;;10.43;9.25;;;;;;;17.90;100.00;100274.83;1792266;78;21032;-87
2022/07/26 01:08:51;;;;;;;10.40;9.55;;;;;;;17.92;100.00;100266.27;1792208;78;21527;-86
2022/07/26 01:11:18;;;;;;;10.82;9.80;;;;;;;17.95;100.00;100265.91;1792246;78;21483;-87
2022/07/26 01:13:48;;;;;;;10.82;9.93;;;;;;;17.95;100.00;100262.83;1792149;78;21127;-87
2022/07/26 01:16:17;;;;;;;12.13;10.93;;;;;;;17.94;100.00;100257.20;1792499;78;21028;-86
2022/07/26 01:18:44;;;;;;;10.58;9.68;;;;;;;17.93;100.00;100258.70;1792032;80;21048;-86
2022/07/26 01:21:12;;;;;;;10.75;9.75;;;;;;;17.86;100.00;100258.55;1792276;80;20957;-86
2022/07/26 01:23:40;;;;;;;10.85;9.85;;;;;;;17.79;100.00;100254.97;1792483;80;21040;-87
2022/07/26 01:26:08;;;;;;;10.82;9.73;;;;;;;17.74;100.00;100258.11;1792141;79;21145;-86
2022/07/26 01:28:39;;;;;;;9.85;8.95;;;;;;;17.66;100.00;100252.41;1791987;80;20973;-87
2022/07/26 01:31:07;;;;;;;9.43;8.53;;;;;;;17.61;100.00;100245.49;1792130;78;21068;-86
2022/07/26 01:33:35;;;;;;;9.50;8.70;;;;;;;17.56;100.00;100249.14;1792241;80;21965;-87
2022/07/26 01:36:02;;;;;;;9.80;8.90;;;;;;;17.53;100.00;100244.20;1792436;80;21072;-86
2022/07/26 01:38:30;;;;;;;9.53;8.63;;;;;;;17.49;100.00;100248.98;1792349;80;21112;-89
2022/07/26 01:40:58;;;;;;;10.10;9.10;;;;;;;17.47;100.00;100248.84;1792453;78;21072;-87
2022/07/26 01:43:25;;;;;;;9.63;8.75;;;;;;;17.46;100.00;100252.45;1792250;79;21019;-88
2022/07/26 01:45:53;;;;;;;9.63;8.73;;;;;;;17.44;100.00;100250.48;1792259;80;21541;-88
2022/07/26 01:48:22;;;;;;;9.33;8.43;;;;;;;17.45;100.00;100245.55;1792270;80;21008;-87
2022/07/26 01:50:51;;;;;;;9.50;8.23;;;;;;;17.46;100.00;100249.83;1792149;79;21123;-87
2022/07/26 01:53:18;;;;;;;9.85;8.93;;;;;;;17.45;100.00;100254.28;1792158;80;20977;-86
2022/07/26 01:55:46;;;;;;;9.83;8.93;;;;;;;17.45;100.00;100253.44;1792087;78;21012;-87
2022/07/26 01:58:14;;;;;;;10.08;9.13;;;;;;;17.44;100.00;100251.31;1792255;80;21001;-87
2022/07/26 02:00:43;;;;;;;10.30;9.35;;;;;;;17.44;100.00;100246.53;1792124;78;21055;-86
2022/07/26 02:03:10;;;;;;;10.20;9.30;;;;;;;17.43;100.00;100250.16;1792121;80;21887;-86
2022/07/26 02:05:38;;;;;;;10.98;9.25;;;;;;;17.43;100.00;100252.78;1792081;78;20997;-87
2022/07/26 02:08:07;;;;;;;10.08;9.20;;;;;;;17.43;100.00;100255.41;1792517;78;21106;-87
2022/07/26 02:13:20;;;;;;;10.40;9.50;;;;;;;17.40;100.00;100261.03;1792533;78;20949;-87
2022/07/26 02:15:48;;;;;;;10.45;9.55;;;;;;;17.38;100.00;100269.59;1792146;78;21126;-87
2022/07/26 02:18:15;;;;;;;10.90;9.78;;;;;;;17.34;100.00;100262.05;1792422;80;21013;-87
2022/07/26 02:20:44;;;;;;;11.38;10.38;;;;;;;17.28;100.00;100257.44;1792063;80;20950;-87
2022/07/26 02:23:11;;;;;;;11.50;10.43;;;;;;;17.25;100.00;100264.36;1792184;80;21467;-89
2022/07/26 02:25:40;;;;;;;11.15;10.05;;;;;;;17.22;100.00;100263.38;1804745;78;21301;-89
2022/07/26 02:28:08;;;;;;;10.70;9.68;;;;;;;17.21;100.00;100266.98;1827355;78;21180;-87
2022/07/26 02:30:35;;;;;;;11.20;10.10;;;;;;;17.21;100.00;100274.87;1827464;78;21070;-87
2022/07/26 02:33:03;;;;;;;10.65;9.78;;;;;;;17.21;100.00;100267.50;1827592;78;21030;-86
2022/07/26 02:35:30;;;;;;;10.45;9.45;;;;;;;17.20;100.00;100267.97;1827728;78;21030;-87
2022/07/26 02:38:06;;;;;;;11.55;10.45;;;;;;;17.22;100.00;100279.16;1827973;78;21551;-87
2022/07/26 02:40:36;;;;;;;11.75;10.65;;;;;;;17.24;100.00;100285.08;1825255;78;21125;-87
2022/07/26 02:43:06;;;;;;;10.30;9.38;;;;;;;17.25;100.00;100278.84;1824384;78;20966;-87
2022/07/26 02:45:35;;;;;;;11.38;10.28;;;;;;;17.27;100.00;100289.19;1824437;78;21029;-88
2022/07/26 02:48:04;;;;;;;11.43;10.43;;;;;;;17.28;100.00;100278.48;1824232;78;21041;-87
2022/07/26 02:50:31;;;;;;;11.08;10.08;;;;;;;17.30;100.00;100276.52;1824477;78;21467;-87
2022/07/26 02:53:00;;;;;;;11.75;10.65;;;;;;;17.32;100.00;100283.75;1824434;78;21781;-87
2022/07/26 02:55:28;;;;;;;14.95;10.50;;;;;;;17.34;100.00;100281.78;1824236;78;21449;-87
2022/07/26 02:57:57;;;;;;;12.28;11.08;;;;;;;17.33;100.00;100285.40;1824508;78;21025;-89
2022/07/26 03:00:26;;;;;;;11.43;10.30;;;;;;;17.31;100.00;100290.00;1824613;78;21676;-89
2022/07/26 03:02:53;;;;;;;11.78;10.78;;;;;;;17.30;100.00;100286.23;1775284;80;21109;-89
2022/07/26 03:05:21;;;;;;;12.58;11.48;;;;;;;17.31;100.00;100287.37;1781250;80;21531;-92
2022/07/26 03:07:49;;;;;;;12.65;11.45;;;;;;;17.31;100.00;100291.31;1781459;80;21013;-90
2022/07/26 03:10:17;;;;;;;12.93;11.65;;;;;;;17.27;100.00;100289.99;1781136;79;20983;-90
2022/07/26 03:12:45;;;;;;;12.80;11.60;;;;;;;17.24;100.00;100289.03;1781111;79;20983;-90
2022/07/26 03:15:13;;;;;;;15.45;12.65;;;;;;;17.21;100.00;100290.66;1781071;79;21602;-90
2022/07/26 03:17:40;;;;;;;13.08;11.83;;;;;;;17.21;100.00;100296.44;1781269;80;21120;-90
2022/07/26 03:20:09;;;;;;;12.90;11.70;;;;;;;17.19;100.00;100290.00;1781238;79;21023;-90
2022/07/26 03:22:38;;;;;;;13.68;12.47;;;;;;;17.21;100.00;100295.92;1781664;80;21038;-90
2022/07/26 03:25:05;;;;;;;13.05;11.93;;;;;;;17.22;100.00;100294.94;1780980;79;21018;-90
2022/07/26 03:27:35;;;;;;;12.63;11.30;;;;;;;17.22;100.00;100296.77;1781425;80;20979;-90
2022/07/26 03:30:03;;;;;;;13.48;12.23;;;;;;;17.21;100.00;100295.92;1781226;80;21108;-90
2022/07/26 03:32:31;;;;;;;14.13;12.65;;;;;;;17.19;100.00;100301.84;1781010;80;21061;-90
2022/07/26 03:35:00;;;;;;;13.35;11.73;;;;;;;17.16;100.00;100290.36;1781188;79;20983;-89
2022/07/26 03:37:27;;;;;;;14.50;13.10;;;;;;;17.17;100.00;100297.27;1781203;79;21030;-90
2022/07/26 03:39:55;;;;;;;12.65;11.35;;;;;;;17.18;100.00;100298.91;1781408;79;21045;-91
2022/07/26 03:42:23;;;;;;;14.58;13.28;;;;;;;17.19;100.00;100301.84;1781345;79;22199;-90
2022/07/26 03:44:51;;;;;;;13.70;12.30;;;;;;;17.18;100.00;100298.41;1781054;80;21662;-90
2022/07/26 03:47:18;;;;;;;14.63;13.25;;;;;;;17.19;100.00;100301.84;1781077;80;21006;-89
2022/07/26 03:49:46;;;;;;;14.50;13.10;;;;;;;17.24;100.00;100304.81;1781198;79;21770;-89
2022/07/26 03:52:16;;;;;;;14.47;13.03;;;;;;;17.27;100.00;100295.25;1777094;79;21085;-90
2022/07/26 03:54:45;;;;;;;13.53;12.23;;;;;;;17.36;100.00;100303.97;1772539;80;21130;-90
2022/07/26 03:57:12;;;;;;;15.75;14.33;;;;;;;17.46;100.00;100307.73;1780517;80;20967;-90
2022/07/26 03:59:39;;;;;;;14.93;13.48;;;;;;;17.53;100.00;100308.70;1771491;79;20999;-89
2022/07/26 04:02:07;;;;;;;14.33;13.10;;;;;;;17.60;100.00;100310.98;1778410;79;21038;-89
2022/07/26 04:04:35;;;;;;;19.30;15.43;;;;;;;17.69;100.00;100309.63;1782698;79;21041;-89
2022/07/26 04:07:03;;;;;;;16.70;15.10;;;;;;;17.74;100.00;100312.60;1813820;79;21107;-89
2022/07/26 04:09:30;;;;;;;16.52;14.83;;;;;;;17.80;100.00;100312.72;1813941;79;21496;-88
2022/07/26 04:11:58;;;;;;;16.30;14.80;;;;;;;17.89;100.00;100317.96;1813816;79;20998;-89
2022/07/26 04:14:26;;;;;;;16.87;15.23;;;;;;;17.96;100.00;100324.22;1813790;79;20970;-91
2022/07/26 04:16:53;;;;;;;17.45;15.85;;;;;;;18.00;100.00;100326.84;1813646;79;21053;-89
2022/07/26 04:19:20;;;;;;;17.95;16.27;;;;;;;17.99;100.00;100319.94;1813938;78;21981;-89
2022/07/26 04:21:48;;;;;;;19.17;17.17;;;;;;;17.95;100.00;100317.27;1814167;78;21009;-89
2022/07/26 04:24:15;;;;;;;17.77;16.10;;;;;;;17.93;100.00;100314.01;1813968;79;21025;-90
2022/07/26 04:26:45;;;;;;;18.07;16.35;;;;;;;17.94;100.00;100313.83;1814131;79;20927;-88
2022/07/26 04:29:13;;;;;;;18.32;16.62;;;;;;;18.02;100.00;100310.38;1810599;79;21041;-89
2022/07/26 04:31:42;;;;;;;18.12;16.35;;;;;;;18.10;100.00;100315.61;1782843;80;21804;-90
2022/07/26 04:34:10;;;;;;;17.92;16.23;;;;;;;18.18;100.00;100303.39;1785086;80;21035;-91
2022/07/26 04:36:38;;;;;;;18.92;16.95;;;;;;;18.26;100.00;100300.20;1785066;80;21003;-89
2022/07/26 04:39:05;;;;;;;18.32;16.55;;;;;;;18.39;100.00;100308.02;1784875;80;21087;-89
2022/07/26 04:41:32;;;;;;;19.90;17.92;;;;;;;18.51;100.00;100301.37;1785153;80;21103;-89
2022/07/26 04:43:59;;;;;;;18.95;17.17;;;;;;;18.63;100.00;100295.70;1785409;80;21140;-89
2022/07/26 04:46:27;;;;;;;20.20;18.12;;;;;;;18.74;100.00;100296.59;1784738;80;21020;-89
2022/07/26 04:48:54;;;;;;;19.87;17.95;;;;;;;18.87;100.00;100302.08;1785521;80;21958;-88
2022/07/26 04:51:21;;;;;;;22.55;17.10;;;;;;;19.02;100.00;100303.98;1785076;80;21012;-88
2022/07/26 04:53:48;;;;;;;19.20;17.17;;;;;;;19.14;100.00;100296.46;1785262;80;22001;-89
2022/07/26 04:56:15;;;;;;;20.10;17.92;;;;;;;19.27;100.00;100297.16;1785151;80;21235;-89
2022/07/26 04:58:42;;;;;;;19.00;17.17;;;;;;;19.37;100.00;100291.09;1785510;80;21011;-89
2022/07/26 05:01:09;;;;;;;18.07;16.37;;;;;;;19.46;100.00;100291.34;1785269;80;21083;-90
2022/07/26 05:03:37;;;;;;;17.48;15.88;;;;;;;19.53;100.00;100290.92;1785292;80;21541;-90
2022/07/26 05:06:05;;;;;;;18.67;16.87;;;;;;;19.61;100.00;100291.83;1785268;80;21035;-88
2022/07/26 05:08:34;;;;;;;17.92;16.23;;;;;;;19.68;100.00;100288.77;1814036;78;21065;-90
2022/07/26 05:11:03;;;;;;;19.95;17.90;;;;;;;19.74;100.00;100290.70;1804367;78;21006;-84
2022/07/26 05:13:31;;;;;;;17.45;15.72;;;;;;;19.82;100.00;100298.53;1797288;79;21041;-84
2022/07/26 05:16:00;;;;;;;19.55;16.67;;;;;;;19.94;100.00;100302.03;1750551;82;21610;-84
2022/07/26 05:18:29;;;;;;;18.05;16.10;;;;;;;20.07;100.00;100305.34;1749211;82;21015;-84
2022/07/26 05:20:57;;;;;;;18.05;16.35;;;;;;;20.20;100.00;100292.78;1781621;80;21136;-84
2022/07/26 05:23:24;;;;;;;18.57;16.77;;;;;;;20.35;100.00;100300.16;1751449;81;21021;-84
2022/07/26 05:25:52;;;;;;;19.02;17.23;;;;;;;20.45;100.00;100294.56;1752817;81;20970;-84
2022/07/26 05:28:20;;;;;;;18.23;16.27;;;;;;;20.54;100.00;100289.98;1753115;80;21025;-83
2022/07/26 05:30:49;;;;;;;16.52;14.93;;;;;;;20.60;100.00;100282.09;1752659;81;21096;-83
2022/07/26 05:33:16;;;;;;;22.73;17.20;;;;;;;20.72;100.00;100280.27;1753004;81;21795;-84
2022/07/26 05:35:43;;;;;;;18.92;16.40;;;;;;;20.83;100.00;100276.31;1749884;81;20996;-84
2022/07/26 05:38:11;;;;;;;15.35;14.05;;;;;;;20.95;100.00;100287.52;1743269;81;21093;-84
2022/07/26 05:40:38;;;;;;;17.45;15.72;;;;;;;21.09;100.00;100283.63;1744628;81;21029;-85
2022/07/26 05:43:06;;;;;;;15.93;14.43;;;;;;;21.23;100.00;100277.41;1747826;81;21074;-84
2022/07/26 05:45:33;;;;;;;15.23;13.83;;;;;;;21.34;100.00;100273.42;1747977;81;21229;-84
2022/07/26 05:48:01;;;;;;;16.23;14.65;;;;;;;21.44;100.00;100275.20;1748056;81;21081;-84
2022/07/26 05:50:29;;;;;;;14.20;13.00;;;;;;;21.52;100.00;100271.59;1751604;81;21010;-84
2022/07/26 05:52:58;;;;;;;15.83;14.30;;;;;;;21.63;100.00;100270.23;1750585;81;21100;-84
2022/07/26 05:55:25;;;;;;;16.00;14.50;;;;;;;21.77;100.00;100273.77;1753329;81;21018;-85
2022/07/26 05:57:54;;;;;;;16.15;14.65;;;;;;;21.90;100.00;100265.86;1736889;81;21103;-85
2022/07/26 06:00:22;;;;;;;14.83;13.32;;;;;;;22.02;100.00;100259.47;1745238;81;21057;-84
2022/07/26 06:02:49;;;;;;;15.80;14.33;;;;;;;22.14;100.00;100256.25;1747993;81;21057;-85
2022/07/26 06:05:16;;;;;;;16.77;15.08;;;;;;;22.22;100.00;100255.55;1742482;81;21631;-84
2022/07/26 06:07:44;;;;;;;15.18;13.78;;;;;;;22.32;100.00;100256.98;1767084;80;21545;-85
2022/07/26 06:10:12;;;;;;;15.20;13.83;;;;;;;22.41;100.00;100262.94;1737492;81;21144;-84
2022/07/26 06:12:40;;;;;;;16.40;14.58;;;;;;;22.55;100.00;100260.63;1737882;81;21153;-84
2022/07/26 06:15:07;;;;;;;17.00;15.30;;;;;;;22.68;100.00;100262.45;1730040;81;21035;-84
2022/07/26 06:17:40;;;;;;;17.23;15.48;;;;;;;22.73;100.00;100257.85;1796789;78;21043;-84
2022/07/26 06:20:10;;;;;;;16.30;14.78;;;;;;;22.77;100.00;100256.44;1796097;78;21019;-84
2022/07/26 06:22:38;;;;;;;16.42;14.85;;;;;;;22.81;100.00;100256.32;1790720;78;21786;-84
2022/07/26 06:25:06;;;;;;;17.02;14.93;;;;;;;22.84;100.00;100255.92;1801270;78;21073;-84
2022/07/26 06:27:34;;;;;;;16.55;15.10;;;;;;;22.88;100.00;100251.82;1787001;78;21046;-85
2022/07/26 06:30:04;;;;;;;16.25;14.63;;;;;;;22.95;100.00;100253.16;1767160;80;21037;-83
2022/07/26 06:32:31;;;;;;;14.18;12.98;;;;;;;23.05;100.00;100248.74;1750070;82;21100;-85
2022/07/26 06:34:58;;;;;;;14.95;13.62;;;;;;;23.14;100.00;100243.52;1750072;82;21139;-86
2022/07/26 06:37:25;;;;;;;15.20;13.80;;;;;;;23.17;100.00;100247.10;1749702;82;21038;-87
2022/07/26 06:39:52;;;;;;;14.83;13.28;;;;;;;23.23;100.00;100237.00;1755033;80;21063;-92
2022/07/26 06:42:19;;;;;;;15.43;13.72;;;;;;;23.31;100.00;100238.09;1764976;79;21518;-95
2022/07/26 06:44:50;;;;;;;14.13;12.80;;;;;;;23.45;100.00;100236.72;1769555;81;21048;-93
2022/07/26 06:47:18;;;;;;;15.70;14.30;;;;;;;23.57;100.00;100245.69;1756158;81;21117;-95
2022/07/26 06:49:46;;;;;;;14.03;12.82;;;;;;;23.64;100.00;100235.01;1764335;80;21057;-93
2022/07/26 06:52:14;;;;;;;13.28;12.13;;;;;;;23.69;100.00;100230.39;1769025;78;22338;-93
2022/07/26 06:54:43;;;;;;;12.55;11.25;;;;;;;23.77;100.00;100234.13;1772380;78;21006;-93
2022/07/26 06:57:10;;;;;;;12.88;11.80;;;;;;;23.82;100.00;100232.17;1756987;80;21509;-93
2022/07/26 06:59:37;;;;;;;13.18;12.03;;;;;;;23.79;100.00;100232.92;1712517;81;21145;-93
2022/07/26 07:02:05;;;;;;;13.15;11.88;;;;;;;23.79;100.00;100229.42;1714856;83;21010;-92
2022/07/26 07:04:33;;;;;;;13.68;12.33;;;;;;;23.87;100.00;100227.05;1790579;78;20973;-93
2022/07/26 07:07:02;;;;;;;14.00;12.65;;;;;;;24.08;100.00;100228.07;1790380;78;21014;-93
2022/07/26 07:09:33;;;;;;;12.93;11.75;;;;;;;24.35;100.00;100224.41;1794032;79;20912;-92
2022/07/26 07:12:03;;;;;;;12.60;10.90;;;;;;;24.56;100.00;100210.72;1796508;79;21123;-92
2022/07/26 07:14:31;;;;;;;11.33;10.43;;;;;;;24.65;100.00;100217.09;1781653;79;21030;-93
2022/07/26 07:16:58;;;;;;;10.85;9.95;;;;;;;24.52;100.00;100211.38;1789346;79;21049;-94
2022/07/26 07:19:26;;;;;;;10.95;10.05;;;;;;;24.36;100.00;100213.54;1791822;79;21081;-94
2022/07/26 07:21:55;;;;;;;11.03;9.38;;;;;;;24.29;100.00;100222.62;1790361;79;21011;-93
2022/07/26 07:24:25;;;;;;;9.60;8.70;;;;;;;24.23;100.00;100221.13;1780270;79;21552;-94
2022/07/26 07:26:53;;;;;;;10.85;9.85;;;;;;;24.10;100.00;100223.86;1780981;79;22231;-94
2022/07/26 07:29:21;;;;;;;9.03;8.33;;;;;;;23.96;100.00;100227.63;1790307;79;21042;-93
2022/07/26 07:31:48;;;;;;;10.38;9.38;;;;;;;23.82;100.00;100214.39;1790451;78;21046;-95
2022/07/26 07:34:21;;;;;;;10.90;9.93;;;;;;;23.84;100.00;100210.98;1785016;79;21117;-93
2022/07/26 07:36:49;;;;;;;11.73;10.63;;;;;;;23.96;100.00;100220.98;1785970;79;21203;-92
2022/07/26 07:39:17;;;;;;;9.70;8.70;;;;;;;24.13;100.00;100219.95;1786286;79;21038;-92
2022/07/26 07:41:46;;;;;;;9.98;9.18;;;;;;;24.25;100.00;100215.59;1801131;79;20940;-92
2022/07/26 07:44:15;;;;;;;9.55;8.75;;;;;;;24.40;100.00;100207.27;1802245;79;21574;-92
2022/07/26 07:46:42;;;;;;;10.23;9.30;;;;;;;24.52;100.00;100208.70;1802537;79;21475;-92
2022/07/26 07:49:09;;;;;;;10.40;9.38;;;;;;;24.53;100.00;100204.52;1797688;79;21221;-94
2022/07/26 07:51:37;;;;;;;9.33;8.43;;;;;;;24.39;100.00;100210.45;1781243;79;21093;-93
2022/07/26 07:54:04;;;;;;;8.93;7.70;;;;;;;24.21;100.00;100219.20;1780865;79;21137;-92
2022/07/26 07:56:31;;;;;;;9.40;8.43;;;;;;;24.03;100.00;100227.08;1781487;79;21342;-93
2022/07/26 07:58:59;;;;;;;10.25;9.35;;;;;;;23.88;100.00;100223.34;1781109;80;21069;-90
2022/07/26 08:01:30;;;;;;;10.55;9.55;;;;;;;23.78;100.00;100218.48;1781285;79;21978;-96
2022/07/26 08:04:06;;;;;;;9.33;8.53;;;;;;;23.73;100.00;100216.99;1772028;79;21035;-95
2022/07/26 08:06:36;;;;;;;9.15;8.35;;;;;;;23.65;100.00;100206.61;1804806;79;20993;-96
2022/07/26 08:09:04;;;;;;;9.50;8.65;;;;;;;23.58;100.00;100216.76;1803168;79;21062;-93
2022/07/26 08:11:32;;;;;;;9.10;8.20;;;;;;;23.47;100.00;100214.75;1794822;79;21002;-96
2022/07/26 08:13:59;;;;;;;8.85;8.05;;;;;;;23.29;100.00;100219.42;1793479;79;21538;-95
2022/07/26 08:16:27;;;;;;;9.18;7.90;;;;;;;23.13;100.00;100226.78;1792143;78;21093;-96
2022/07/26 08:18:55;;;;;;;8.55;7.85;;;;;;;23.03;100.00;100221.61;1790482;79;21109;-95
2022/07/26 08:21:22;;;;;;;8.78;7.87;;;;;;;22.93;100.00;100228.15;1794695;79;21431;-95
2022/07/26 08:23:50;;;;;;;9.55;8.68;;;;;;;22.87;100.00;100224.16;1793631;79;21010;-95
2022/07/26 08:26:18;;;;;;;9.93;8.93;;;;;;;22.83;100.00;100223.77;1782041;79;21108;-95
2022/07/26 08:28:48;;;;;;;7.78;7.17;;;;;;;22.81;100.00;100224.47;1792036;78;21523;-96
2022/07/26 08:31:18;;;;;;;7.42;6.75;;;;;;;22.81;100.00;100223.14;1793170;79;21088;-96
2022/07/26 08:33:45;;;;;;;9.25;7.80;;;;;;;22.81;100.00;100223.14;1793229;79;21531;-96
2022/07/26 08:36:14;;;;;;;7.47;6.87;;;;;;;22.78;100.00;100222.25;1779459;79;21013;-96
2022/07/26 08:38:42;;;;;;;7.55;6.95;;;;;;;22.81;100.00;100221.82;1788046;79;21444;-95
2022/07/26 08:41:11;;;;;;;7.85;7.08;;;;;;;22.83;100.00;100224.56;1769893;79;21050;-95
2022/07/26 08:43:39;;;;;;;12.47;6.62;;;;;;;22.90;100.00;100220.59;1777292;79;20997;-96
2022/07/26 08:46:06;;;;;;;7.25;6.55;;;;;;;22.97;100.00;100216.08;1798156;79;21006;-96
2022/07/26 08:48:33;;;;;;;7.95;7.25;;;;;;;23.05;100.00;100220.86;1802509;79;21476;-96
2022/07/26 08:51:06;;;;;;;7.28;6.60;;;;;;;23.14;100.00;100220.45;1789524;79;21123;-96
2022/07/26 08:53:36;;;;;;;7.40;6.70;;;;;;;23.24;100.00;100217.88;1778462;79;21020;-95
2022/07/26 08:56:04;;;;;;;6.92;6.33;;;;;;;23.38;100.00;100219.98;1790875;79;21084;-96
2022/07/26 08:58:39;;;;;;;6.67;6.08;;;;;;;23.46;100.00;100206.47;1779515;80;21028;-95
2022/07/26 09:01:12;;;;;;;6.75;6.15;;;;;;;23.47;100.00;100209.44;1778147;79;21008;-95
2022/07/26 09:03:43;;;;;;;6.72;6.12;;;;;;;23.46;100.00;100218.43;1794695;78;21128;-95
2022/07/26 09:06:20;;;;;;;7.57;6.63;;;;;;;23.47;100.00;100210.77;1791173;79;21564;-96
2022/07/26 09:08:52;;;;;;;7.70;7.05;;;;;;;23.54;100.00;100210.22;1801596;77;21792;-96
2022/07/26 09:11:32;;;;;;;7.58;6.78;;;;;;;23.59;100.00;100213.08;1811946;77;20958;-96
2022/07/26 09:14:05;;;;;;;7.05;6.42;;;;;;;23.60;100.00;100214.69;1800092;78;21103;-96
2022/07/26 09:16:33;;;;;;;6.97;6.28;;;;;;;23.54;100.00;100214.20;1809331;78;21733;-95
2022/07/26 09:19:21;;;;;;;7.00;6.35;;;;;;;23.46;100.00;100206.47;1805404;79;21055;-96
2022/07/26 09:21:50;;;;;;;6.30;5.80;;;;;;;23.39;100.00;100198.55;1806286;78;21027;-96
2022/07/26 09:24:33;;;;;;;6.62;6.03;;;;;;;23.37;100.00;100197.11;1804631;79;21507;-96
2022/07/26 09:27:06;;;;;;;7.60;6.83;;;;;;;23.37;100.00;100199.27;1798890;79;21072;-96
2022/07/26 09:29:49;;;;;;;7.53;6.83;;;;;;;23.41;100.00;100201.79;1809685;79;21800;-96
2022/07/26 09:32:24;;;;;;;7.60;6.40;;;;;;;23.49;100.00;100199.42;1802978;78;21111;-95
2022/07/26 09:34:57;;;;;;;8.03;6.22;;;;;;;23.66;100.00;100204.25;1811649;78;21006;-96
2022/07/26 09:37:37;;;;;;;6.37;5.87;;;;;;;23.85;100.00;100207.30;1801407;79;21076;-96
2022/07/26 09:40:09;;;;;;;6.47;5.90;;;;;;;24.04;100.00;100206.11;1810151;79;21010;-95
2022/07/26 09:42:38;;;;;;;8.28;6.62;;;;;;;24.18;100.00;100199.66;1797503;79;22034;-95
2022/07/26 09:45:16;;;;;;;7.05;6.45;;;;;;;24.35;100.00;100191.16;1807600;79;20978;-95
2022/07/26 09:47:44;;;;;;;6.85;6.20;;;;;;;24.45;100.00;100194.64;1810715;79;21030;-96
2022/07/26 09:50:20;;;;;;;5.80;5.40;;;;;;;24.50;100.00;100177.00;1816137;78;20940;-96
2022/07/26 09:53:09;;;;;;;5.80;5.33;;;;;;;24.54;100.00;100184.86;1812929;78;21547;-96
2022/07/26 09:55:51;;;;;;;6.55;5.75;;;;;;;24.55;100.00;100181.17;1801788;79;21145;-96
2022/07/26 09:58:18;;;;;;;;;;;;;;;24.54;100.00;100188.02;1795624;78;21569;-96
2022/07/26 10:00:45;;;;;;;7.58;6.60;;;;;;;24.50;100.00;100199.63;1797676;79;20201;-95
2022/07/26 10:03:13;;;;;;;7.00;6.40;;;;;;;24.51;100.00;100197.79;1800118;78;21024;-94
2022/07/26 10:05:42;;;;;;;7.40;6.80;;;;;;;24.52;100.00;100205.55;1816251;78;21025;-95
2022/07/26 10:08:10;;;;;;;12.20;6.72;;;;;;;24.55;100.00;100211.78;1807280;78;21112;-94
2022/07/26 10:11:05;;;;;;;7.10;5.85;;;;;;;24.56;100.00;100209.39;1811521;78;21059;-96
2022/07/26 10:13:32;;;;;;;14.23;5.53;;;;;;;24.48;100.00;100219.50;1814754;78;21083;-96
2022/07/26 10:16:00;;;;;;;9.23;6.37;;;;;;;24.26;100.00;100235.31;1792921;78;21027;-95
2022/07/26 10:18:42;;;;;;;12.68;7.97;;;;;;;24.00;100.00;100248.77;1797115;79;21035;-96
2022/07/26 10:21:23;;;;;;;16.42;7.58;;;;;;;23.68;100.00;100251.34;1794479;79;21490;-96
2022/07/26 10:23:57;;;;;;;14.03;7.70;;;;;;;23.18;100.00;100255.91;1796134;78;21038;-95
2022/07/26 10:26:36;;;;;;;11.48;6.50;;;;;;;22.41;100.00;100275.70;1810812;78;21030;-96
2022/07/26 10:29:25;;;;;;;8.83;6.17;;;;;;;21.84;100.00;100287.02;1811002;78;21078;-96
2022/07/26 10:32:14;;;;;;;9.73;6.22;;;;;;;21.47;100.00;100311.58;1814459;79;21038;-95
2022/07/26 10:35:28;;;;;;;8.60;5.25;;;;;;;21.12;100.00;100321.64;1811655;79;21083;-96
2022/07/26 10:38:06;;;;;;;12.98;5.67;;;;;;;20.89;100.00;100344.34;1751482;81;21061;-96
2022/07/26 10:40:37;;;;;;;7.10;4.70;;;;;;;20.53;100.00;100369.00;1772637;80;21044;-96
2022/07/26 10:43:16;;;;;;;6.60;4.08;;;;;;;19.97;100.00;100373.83;1772911;80;21003;-96
2022/07/26 10:45:46;;;;;;;5.00;4.15;;;;;;;19.21;100.00;100366.00;1743037;82;21002;-95
2022/07/26 10:50:53;;;;;;;4.12;3.10;;;;;;;17.95;100.00;100356.78;1770066;80;21053;-95
2022/07/26 10:53:26;;;;;;;7.50;3.22;;;;;;;17.57;100.00;100344.72;1743114;80;21359;-95
2022/07/26 10:55:58;;;;;;;8.48;4.00;;;;;;;17.32;100.00;100343.44;1765073;80;21120;-95
2022/07/26 10:58:27;;;;;;;5.03;3.87;;;;;;;17.15;100.00;100329.48;1748565;82;21013;-94
2022/07/26 11:01:00;;;;;;;6.25;4.17;;;;;;;17.03;100.00;100331.12;1771720;80;21118;-93
2022/07/26 11:03:42;;;;;;;7.05;4.33;;;;;;;17.00;100.00;100326.69;1800450;79;21013;-93
2022/07/26 11:06:17;;;;;;;7.17;4.33;;;;;;;17.00;100.00;100331.94;1800584;78;21053;-92
2022/07/26 11:08:47;;;;;;;6.40;5.03;;;;;;;17.00;100.00;100330.16;1798017;79;21065;-94
2022/07/26 11:11:26;;;;;;;8.28;4.67;;;;;;;17.08;100.00;100320.61;1800356;79;20987;-92
2022/07/26 11:14:07;;;;;;;5.78;4.45;;;;;;;17.14;100.00;100306.80;1798241;79;21191;-93
2022/07/26 11:16:45;;;;;;;6.80;3.55;;;;;;;17.18;100.00;100289.70;1799997;79;21538;-92
2022/07/26 11:19:23;;;;;;;6.83;3.42;;;;;;;17.19;100.00;100278.16;1780789;79;21558;-93
2022/07/26 11:21:57;;;;;;;3.80;2.98;;;;;;;17.18;100.00;100262.89;1804795;79;20992;-92
2022/07/26 11:24:26;;;;;;;5.25;3.00;;;;;;;17.17;100.00;100259.92;1807451;79;21067;-94
2022/07/26 11:26:53;;;;;;;2.95;2.75;;;;;;;17.17;100.00;100267.01;1782430;79;21196;-93